Des Moines, IA

7:47 PM CST on November 24, 2014 (GMT -0600)
Des Moines International | Change Station
CLOSE
Current Station
Airport
Location: Des Moines,
Elevation: 965 ft
Nearby Weather Stations

Elev 965 ft 41.53 °N, 93.66 °W | Updated 53 minutes ago

Overcast
Overcast
28 °F
Feels Like 15 °F
N
21
Wind Variable Wind from NW
Gusts 32 mph

Today
High -- | Low -- °F
--% Chance of Precip.
Yesterday
High -- | Low -- °F
Precip. -- in
7:14 AM 4:48 PM
Waxing Crescent, 8% visible
Pressure 29.91 in
Visibility 10.0 miles
Clouds Overcast 3100 ft
Windchill 15 °F
Dew Point 16 °F
Humidity 61%
Rainfall 0.00 in
Snow Depth Not available.
UV 0 out of 12
Pollen .10 out of 12
Air Quality Not available.
Flu Activity Not available.
METAR KDSM 250054Z 31018G28KT 10SM -SN OVC031 M02/M09 A2987 RMK AO2 PK WND 30031/0044 SNB53 SLP126 P0000 T10221089

More Conditions Fewer Conditions

Pressure 29.91 in
Visibility 10.0 miles
Clouds Overcast 3100 ft
Windchill 15 °F
Dew Point 16 °F
Humidity 61%
Rainfall 0.00 in
Snow Depth Not available.
UV 0 out of 12
Pollen .10 out of 12
Air Quality Not available.
Flu Activity Not available.
METAR KDSM 250054Z 31018G28KT 10SM -SN OVC031 M02/M09 A2987 RMK AO2 PK WND 30031/0044 SNB53 SLP126 P0000 T10221089

More Conditions Fewer Conditions

10-Day Weather Forecast

Almanac

Astronomy

Nov. 24, 2014 Rise Set
Actual Time
Civil Twilight
Nautical Twilight
Astronomical Twilight
Moon
Length of Visible Light
Length of Day
Tomorrow will be .
, % of the Moon is Illuminated

Today's Extremes

State Highs State Lows

Community

WunderPhotos

Upload Photos

1,773,459 photos uploaded!

WunderBlogs® & News

Nearby

Air Quality

  Air Quality AQ Index Pollutant
Not available.

Snow Depth

Station Depth Elevation

Earthquake Activity

City Distance Mag. Time & Date
Minimum magnitude displayed is 2.5.

Coastal Water Temperatures

Place Temperature

Nearby Weather Stations